sensor_id;sensor_type;location;lat;lon;timestamp;temperature;humidity
37158;DHT22;23050;51.776;22.638;2023-02-22T00:00:48;3.70;99.90
37158;DHT22;23050;51.776;22.638;2023-02-22T00:05:45;3.70;99.90
37158;DHT22;23050;51.776;22.638;2023-02-22T00:08:19;3.70;99.90
37158;DHT22;23050;51.776;22.638;2023-02-22T00:10:45;3.60;99.90
37158;DHT22;23050;51.776;22.638;2023-02-22T00:13:13;3.60;99.90
37158;DHT22;23050;51.776;22.638;2023-02-22T00:15:39;3.60;99.90
37158;DHT22;23050;51.776;22.638;2023-02-22T00:18:11;3.60;99.90
37158;DHT22;23050;51.776;22.638;2023-02-22T00:20:37;3.50;99.90
37158;DHT22;23050;51.776;22.638;2023-02-22T00:23:08;3.50;99.90
37158;DHT22;23050;51.776;22.638;2023-02-22T00:25:37;3.40;99.90
37158;DHT22;23050;51.776;22.638;2023-02-22T00:28:02;3.30;99.90
37158;DHT22;23050;51.776;22.638;2023-02-22T00:30:29;3.20;99.90
37158;DHT22;23050;51.776;22.638;2023-02-22T00:32:56;3.10;99.90
37158;DHT22;23050;51.776;22.638;2023-02-22T00:35:24;3.10;99.90
37158;DHT22;23050;51.776;22.638;2023-02-22T00:37:53;3.10;99.90
37158;DHT22;23050;51.776;22.638;2023-02-22T00:40:22;3.10;99.90
37158;DHT22;23050;51.776;22.638;2023-02-22T00:42:48;3.10;99.90
37158;DHT22;23050;51.776;22.638;2023-02-22T00:45:22;3.10;99.90
37158;DHT22;23050;51.776;22.638;2023-02-22T00:47:48;3.20;99.90
37158;DHT22;23050;51.776;22.638;2023-02-22T00:50:15;3.10;99.90
37158;DHT22;23050;51.776;22.638;2023-02-22T00:52:42;3.20;99.90
37158;DHT22;23050;51.776;22.638;2023-02-22T00:55:10;3.20;99.90
37158;DHT22;23050;51.776;22.638;2023-02-22T00:57:39;3.20;99.90
37158;DHT22;23050;51.776;22.638;2023-02-22T01:00:06;3.20;99.90
37158;DHT22;23050;51.776;22.638;2023-02-22T01:02:40;3.20;99.90
37158;DHT22;23050;51.776;22.638;2023-02-22T01:05:08;3.20;99.90
37158;DHT22;23050;51.776;22.638;2023-02-22T01:07:33;3.10;99.90
37158;DHT22;23050;51.776;22.638;2023-02-22T01:10:03;3.10;99.90
37158;DHT22;23050;51.776;22.638;2023-02-22T01:12:29;3.10;99.90
37158;DHT22;23050;51.776;22.638;2023-02-22T01:14:55;3.00;99.90
37158;DHT22;23050;51.776;22.638;2023-02-22T01:17:24;3.00;99.90
37158;DHT22;23050;51.776;22.638;2023-02-22T01:19:50;3.00;99.90
37158;DHT22;23050;51.776;22.638;2023-02-22T01:22:17;2.90;99.90
37158;DHT22;23050;51.776;22.638;2023-02-22T01:24:43;2.80;99.90
37158;DHT22;23050;51.776;22.638;2023-02-22T01:27:08;2.80;99.90
37158;DHT22;23050;51.776;22.638;2023-02-22T01:29:35;2.70;99.90
37158;DHT22;23050;51.776;22.638;2023-02-22T01:32:00;2.70;99.90
37158;DHT22;23050;51.776;22.638;2023-02-22T01:34:26;2.70;99.90
37158;DHT22;23050;51.776;22.638;2023-02-22T01:36:52;2.70;99.90
37158;DHT22;23050;51.776;22.638;2023-02-22T01:39:17;2.60;99.90
37158;DHT22;23050;51.776;22.638;2023-02-22T01:41:44;2.60;99.90
37158;DHT22;23050;51.776;22.638;2023-02-22T01:44:33;2.60;99.90
37158;DHT22;23050;51.776;22.638;2023-02-22T01:47:01;2.60;99.90
37158;DHT22;23050;51.776;22.638;2023-02-22T01:49:40;2.60;99.90
37158;DHT22;23050;51.776;22.638;2023-02-22T01:52:07;2.70;99.90
37158;DHT22;23050;51.776;22.638;2023-02-22T01:54:50;2.60;99.90
37158;DHT22;23050;51.776;22.638;2023-02-22T01:57:30;2.70;99.90
37158;DHT22;23050;51.776;22.638;2023-02-22T02:00:03;2.60;99.90
37158;DHT22;23050;51.776;22.638;2023-02-22T02:02:35;2.60;99.90
37158;DHT22;23050;51.776;22.638;2023-02-22T02:05:01;2.60;99.90
37158;DHT22;23050;51.776;22.638;2023-02-22T02:07:33;2.50;99.90
37158;DHT22;23050;51.776;22.638;2023-02-22T02:10:02;2.40;99.90
37158;DHT22;23050;51.776;22.638;2023-02-22T02:12:31;2.40;99.90
37158;DHT22;23050;51.776;22.638;2023-02-22T02:15:24;2.40;99.90
37158;DHT22;23050;51.776;22.638;2023-02-22T02:17:52;2.40;99.90
37158;DHT22;23050;51.776;22.638;2023-02-22T02:21:06;2.40;99.90
37158;DHT22;23050;51.776;22.638;2023-02-22T02:26:28;2.40;99.90
37158;DHT22;23050;51.776;22.638;2023-02-22T02:34:39;2.20;99.90
37158;DHT22;23050;51.776;22.638;2023-02-22T02:37:20;2.20;99.90
37158;DHT22;23050;51.776;22.638;2023-02-22T02:39:58;2.10;99.90
37158;DHT22;23050;51.776;22.638;2023-02-22T02:42:33;2.00;99.90
37158;DHT22;23050;51.776;22.638;2023-02-22T02:45:20;1.90;99.90
37158;DHT22;23050;51.776;22.638;2023-02-22T02:47:52;1.90;99.90
37158;DHT22;23050;51.776;22.638;2023-02-22T02:50:24;1.90;99.90
37158;DHT22;23050;51.776;22.638;2023-02-22T02:52:53;1.80;99.90
37158;DHT22;23050;51.776;22.638;2023-02-22T02:55:21;1.90;99.90
37158;DHT22;23050;51.776;22.638;2023-02-22T02:57:47;1.80;99.90
37158;DHT22;23050;51.776;22.638;2023-02-22T03:00:18;1.90;99.90
37158;DHT22;23050;51.776;22.638;2023-02-22T03:05:49;2.00;99.90
37158;DHT22;23050;51.776;22.638;2023-02-22T03:11:06;2.10;99.90
37158;DHT22;23050;51.776;22.638;2023-02-22T03:16:45;2.20;99.90
37158;DHT22;23050;51.776;22.638;2023-02-22T03:19:34;2.30;99.90
37158;DHT22;23050;51.776;22.638;2023-02-22T03:22:13;2.30;99.90
37158;DHT22;23050;51.776;22.638;2023-02-22T03:24:54;2.30;99.90
37158;DHT22;23050;51.776;22.638;2023-02-22T03:27:46;2.30;99.90
37158;DHT22;23050;51.776;22.638;2023-02-22T03:30:15;2.40;99.90
37158;DHT22;23050;51.776;22.638;2023-02-22T03:32:46;2.30;99.90
37158;DHT22;23050;51.776;22.638;2023-02-22T03:35:22;2.30;99.90
37158;DHT22;23050;51.776;22.638;2023-02-22T03:37:54;2.30;99.90
37158;DHT22;23050;51.776;22.638;2023-02-22T03:40:27;2.30;99.90
37158;DHT22;23050;51.776;22.638;2023-02-22T03:43:03;2.30;99.90
37158;DHT22;23050;51.776;22.638;2023-02-22T03:45:31;2.30;99.90
37158;DHT22;23050;51.776;22.638;2023-02-22T03:48:07;2.30;99.90
37158;DHT22;23050;51.776;22.638;2023-02-22T03:50:37;2.30;99.90
37158;DHT22;23050;51.776;22.638;2023-02-22T03:53:03;2.30;99.90
37158;DHT22;23050;51.776;22.638;2023-02-22T03:55:29;2.30;99.90
37158;DHT22;23050;51.776;22.638;2023-02-22T03:58:00;2.30;99.90
37158;DHT22;23050;51.776;22.638;2023-02-22T04:00:30;2.30;99.90
37158;DHT22;23050;51.776;22.638;2023-02-22T04:02:56;2.30;99.90
37158;DHT22;23050;51.776;22.638;2023-02-22T04:05:22;2.30;99.90
37158;DHT22;23050;51.776;22.638;2023-02-22T04:07:53;2.30;99.90
37158;DHT22;23050;51.776;22.638;2023-02-22T04:10:19;2.30;99.90
37158;DHT22;23050;51.776;22.638;2023-02-22T04:12:45;2.30;99.90
37158;DHT22;23050;51.776;22.638;2023-02-22T04:15:13;2.30;99.90
37158;DHT22;23050;51.776;22.638;2023-02-22T04:17:40;2.30;99.90
37158;DHT22;23050;51.776;22.638;2023-02-22T04:20:06;2.20;99.90
37158;DHT22;23050;51.776;22.638;2023-02-22T04:22:32;2.20;99.90
37158;DHT22;23050;51.776;22.638;2023-02-22T04:24:57;2.20;99.90
37158;DHT22;23050;51.776;22.638;2023-02-22T04:27:23;2.20;99.90
37158;DHT22;23050;51.776;22.638;2023-02-22T04:29:48;2.20;99.90
37158;DHT22;23050;51.776;22.638;2023-02-22T04:32:14;2.20;99.90
37158;DHT22;23050;51.776;22.638;2023-02-22T04:34:40;2.20;99.90
37158;DHT22;23050;51.776;22.638;2023-02-22T04:37:05;2.30;99.90
37158;DHT22;23050;51.776;22.638;2023-02-22T04:39:32;2.30;99.90
37158;DHT22;23050;51.776;22.638;2023-02-22T04:41:57;2.20;99.90
37158;DHT22;23050;51.776;22.638;2023-02-22T04:44:23;2.20;99.90
37158;DHT22;23050;51.776;22.638;2023-02-22T04:46:49;2.20;99.90
37158;DHT22;23050;51.776;22.638;2023-02-22T04:49:15;2.20;99.90
37158;DHT22;23050;51.776;22.638;2023-02-22T04:51:40;2.20;99.90
37158;DHT22;23050;51.776;22.638;2023-02-22T04:54:07;2.20;99.90
37158;DHT22;23050;51.776;22.638;2023-02-22T04:56:32;2.20;99.90
37158;DHT22;23050;51.776;22.638;2023-02-22T04:58:58;2.20;99.90
37158;DHT22;23050;51.776;22.638;2023-02-22T05:01:24;2.20;99.90
37158;DHT22;23050;51.776;22.638;2023-02-22T05:03:50;2.20;99.90
37158;DHT22;23050;51.776;22.638;2023-02-22T05:06:16;2.20;99.90
37158;DHT22;23050;51.776;22.638;2023-02-22T05:08:42;2.10;99.90
37158;DHT22;23050;51.776;22.638;2023-02-22T05:11:08;2.10;99.90
37158;DHT22;23050;51.776;22.638;2023-02-22T05:13:34;2.10;99.90
37158;DHT22;23050;51.776;22.638;2023-02-22T05:16:00;2.10;99.90
37158;DHT22;23050;51.776;22.638;2023-02-22T05:18:26;2.10;99.90
37158;DHT22;23050;51.776;22.638;2023-02-22T05:20:52;2.10;99.90
37158;DHT22;23050;51.776;22.638;2023-02-22T05:23:17;2.10;99.90
37158;DHT22;23050;51.776;22.638;2023-02-22T05:25:43;2.10;99.90
37158;DHT22;23050;51.776;22.638;2023-02-22T05:28:12;2.10;99.90
37158;DHT22;23050;51.776;22.638;2023-02-22T05:30:39;2.10;99.90
37158;DHT22;23050;51.776;22.638;2023-02-22T05:33:05;2.10;99.90
37158;DHT22;23050;51.776;22.638;2023-02-22T05:35:31;2.10;99.90
37158;DHT22;23050;51.776;22.638;2023-02-22T05:37:57;2.10;99.90
37158;DHT22;23050;51.776;22.638;2023-02-22T05:40:25;2.10;99.90
37158;DHT22;23050;51.776;22.638;2023-02-22T05:42:52;2.10;99.90
37158;DHT22;23050;51.776;22.638;2023-02-22T05:45:20;2.10;99.90
37158;DHT22;23050;51.776;22.638;2023-02-22T05:47:46;2.10;99.90
37158;DHT22;23050;51.776;22.638;2023-02-22T05:50:12;2.10;99.90
37158;DHT22;23050;51.776;22.638;2023-02-22T05:52:38;2.10;99.90
37158;DHT22;23050;51.776;22.638;2023-02-22T05:55:05;2.10;99.90
37158;DHT22;23050;51.776;22.638;2023-02-22T05:57:31;2.20;99.90
37158;DHT22;23050;51.776;22.638;2023-02-22T05:59:57;2.10;99.90
37158;DHT22;23050;51.776;22.638;2023-02-22T06:02:22;2.20;99.90
37158;DHT22;23050;51.776;22.638;2023-02-22T06:04:48;2.20;99.90
37158;DHT22;23050;51.776;22.638;2023-02-22T06:07:14;2.30;99.90
37158;DHT22;23050;51.776;22.638;2023-02-22T06:09:40;2.30;99.90
37158;DHT22;23050;51.776;22.638;2023-02-22T06:12:07;2.30;99.90
37158;DHT22;23050;51.776;22.638;2023-02-22T06:14:33;2.30;99.90
37158;DHT22;23050;51.776;22.638;2023-02-22T06:16:58;2.30;99.90
37158;DHT22;23050;51.776;22.638;2023-02-22T06:19:25;2.30;99.90
37158;DHT22;23050;51.776;22.638;2023-02-22T06:21:55;2.40;99.90
37158;DHT22;23050;51.776;22.638;2023-02-22T06:24:21;2.40;99.90
37158;DHT22;23050;51.776;22.638;2023-02-22T06:26:55;2.40;99.90
37158;DHT22;23050;51.776;22.638;2023-02-22T06:29:22;2.50;99.90
37158;DHT22;23050;51.776;22.638;2023-02-22T06:31:48;2.50;99.90
37158;DHT22;23050;51.776;22.638;2023-02-22T06:34:13;2.50;99.90
37158;DHT22;23050;51.776;22.638;2023-02-22T06:36:39;2.60;99.90
37158;DHT22;23050;51.776;22.638;2023-02-22T06:39:04;2.60;99.90
37158;DHT22;23050;51.776;22.638;2023-02-22T06:41:30;2.60;99.90
37158;DHT22;23050;51.776;22.638;2023-02-22T06:43:56;2.60;99.90
37158;DHT22;23050;51.776;22.638;2023-02-22T06:46:21;2.60;99.90
37158;DHT22;23050;51.776;22.638;2023-02-22T06:48:47;2.70;99.90
37158;DHT22;23050;51.776;22.638;2023-02-22T06:51:14;2.70;99.90
37158;DHT22;23050;51.776;22.638;2023-02-22T06:53:39;2.70;99.90
37158;DHT22;23050;51.776;22.638;2023-02-22T06:56:05;2.70;99.90
37158;DHT22;23050;51.776;22.638;2023-02-22T06:58:31;2.80;99.90
37158;DHT22;23050;51.776;22.638;2023-02-22T07:00:56;2.80;99.90
37158;DHT22;23050;51.776;22.638;2023-02-22T07:03:22;2.90;99.90
37158;DHT22;23050;51.776;22.638;2023-02-22T07:05:47;2.90;99.90
37158;DHT22;23050;51.776;22.638;2023-02-22T07:08:13;2.90;99.90
37158;DHT22;23050;51.776;22.638;2023-02-22T07:10:39;2.90;99.90
37158;DHT22;23050;51.776;22.638;2023-02-22T07:13:06;3.00;99.90
37158;DHT22;23050;51.776;22.638;2023-02-22T07:15:33;3.10;99.90
37158;DHT22;23050;51.776;22.638;2023-02-22T07:18:00;3.20;99.90
37158;DHT22;23050;51.776;22.638;2023-02-22T07:20:27;3.30;99.90
37158;DHT22;23050;51.776;22.638;2023-02-22T07:22:53;3.30;99.90
37158;DHT22;23050;51.776;22.638;2023-02-22T07:25:19;3.40;99.90
37158;DHT22;23050;51.776;22.638;2023-02-22T07:27:46;3.40;99.90
37158;DHT22;23050;51.776;22.638;2023-02-22T07:30:23;3.40;99.90
37158;DHT22;23050;51.776;22.638;2023-02-22T07:32:55;3.50;99.90
37158;DHT22;23050;51.776;22.638;2023-02-22T07:35:28;3.60;99.90
37158;DHT22;23050;51.776;22.638;2023-02-22T07:37:55;3.70;99.90
37158;DHT22;23050;51.776;22.638;2023-02-22T07:40:21;3.70;99.90
37158;DHT22;23050;51.776;22.638;2023-02-22T07:45:19;3.80;99.90
37158;DHT22;23050;51.776;22.638;2023-02-22T07:47:45;3.80;99.90
37158;DHT22;23050;51.776;22.638;2023-02-22T07:50:16;3.80;99.90
37158;DHT22;23050;51.776;22.638;2023-02-22T07:52:50;3.90;99.90
37158;DHT22;23050;51.776;22.638;2023-02-22T07:55:17;4.00;99.90
37158;DHT22;23050;51.776;22.638;2023-02-22T07:57:46;4.00;99.90
37158;DHT22;23050;51.776;22.638;2023-02-22T08:00:15;4.00;99.90
37158;DHT22;23050;51.776;22.638;2023-02-22T08:02:42;4.00;99.90
37158;DHT22;23050;51.776;22.638;2023-02-22T08:05:08;4.00;99.90
37158;DHT22;23050;51.776;22.638;2023-02-22T08:07:35;4.10;99.90
37158;DHT22;23050;51.776;22.638;2023-02-22T08:10:01;4.20;99.90
37158;DHT22;23050;51.776;22.638;2023-02-22T08:12:31;4.20;99.90
37158;DHT22;23050;51.776;22.638;2023-02-22T08:14:57;4.30;99.30
37158;DHT22;23050;51.776;22.638;2023-02-22T08:17:22;4.30;98.70
37158;DHT22;23050;51.776;22.638;2023-02-22T08:19:48;4.40;99.20
37158;DHT22;23050;51.776;22.638;2023-02-22T08:22:14;4.40;98.40
37158;DHT22;23050;51.776;22.638;2023-02-22T08:24:40;4.50;96.50
37158;DHT22;23050;51.776;22.638;2023-02-22T08:27:06;4.60;95.30
37158;DHT22;23050;51.776;22.638;2023-02-22T08:29:31;4.60;92.90
37158;DHT22;23050;51.776;22.638;2023-02-22T08:32:01;4.70;93.30
37158;DHT22;23050;51.776;22.638;2023-02-22T08:34:26;4.80;91.10
37158;DHT22;23050;51.776;22.638;2023-02-22T08:36:52;4.80;89.10
37158;DHT22;23050;51.776;22.638;2023-02-22T08:39:18;4.70;83.50
37158;DHT22;23050;51.776;22.638;2023-02-22T08:41:43;4.80;82.70
37158;DHT22;23050;51.776;22.638;2023-02-22T08:44:09;4.70;77.50
37158;DHT22;23050;51.776;22.638;2023-02-22T08:46:35;4.80;77.60
37158;DHT22;23050;51.776;22.638;2023-02-22T08:49:00;4.90;72.30
37158;DHT22;23050;51.776;22.638;2023-02-22T08:51:27;4.90;63.30
37158;DHT22;23050;51.776;22.638;2023-02-22T08:53:53;5.00;58.90
37158;DHT22;23050;51.776;22.638;2023-02-22T08:56:19;5.10;44.50
37158;DHT22;23050;51.776;22.638;2023-02-22T08:58:45;5.10;41.00
37158;DHT22;23050;51.776;22.638;2023-02-22T09:01:10;5.20;39.50
37158;DHT22;23050;51.776;22.638;2023-02-22T09:03:36;5.20;45.50
37158;DHT22;23050;51.776;22.638;2023-02-22T09:06:03;5.20;36.40
37158;DHT22;23050;51.776;22.638;2023-02-22T09:08:29;5.20;28.50
37158;DHT22;23050;51.776;22.638;2023-02-22T09:10:54;5.30;24.40
37158;DHT22;23050;51.776;22.638;2023-02-22T09:13:20;5.30;19.40
37158;DHT22;23050;51.776;22.638;2023-02-22T09:15:46;5.20;6.10
37158;DHT22;23050;51.776;22.638;2023-02-22T09:18:12;5.30;7.40
37158;DHT22;23050;51.776;22.638;2023-02-22T09:20:39;5.30;1.00
37158;DHT22;23050;51.776;22.638;2023-02-22T09:23:05;5.30;1.00
37158;DHT22;23050;51.776;22.638;2023-02-22T09:25:34;5.30;1.00
37158;DHT22;23050;51.776;22.638;2023-02-22T09:28:00;5.20;1.00
37158;DHT22;23050;51.776;22.638;2023-02-22T09:30:30;5.10;1.00
37158;DHT22;23050;51.776;22.638;2023-02-22T09:33:07;4.90;1.00
37158;DHT22;23050;51.776;22.638;2023-02-22T09:35:34;4.90;1.00
37158;DHT22;23050;51.776;22.638;2023-02-22T09:38:02;4.90;1.00
37158;DHT22;23050;51.776;22.638;2023-02-22T09:40:30;4.80;1.00
37158;DHT22;23050;51.776;22.638;2023-02-22T09:43:46;4.80;1.00
37158;DHT22;23050;51.776;22.638;2023-02-22T09:51:41;4.90;1.80
37158;DHT22;23050;51.776;22.638;2023-02-22T09:54:20;4.80;1.00
37158;DHT22;23050;51.776;22.638;2023-02-22T09:56:50;4.90;1.00
37158;DHT22;23050;51.776;22.638;2023-02-22T09:59:22;4.90;1.00
37158;DHT22;23050;51.776;22.638;2023-02-22T10:01:54;4.90;1.00
37158;DHT22;23050;51.776;22.638;2023-02-22T10:05:12;4.80;1.00
37158;DHT22;23050;51.776;22.638;2023-02-22T10:07:21;4.80;1.00
37158;DHT22;23050;51.776;22.638;2023-02-22T10:09:51;4.80;1.00
37158;DHT22;23050;51.776;22.638;2023-02-22T10:15:25;4.60;1.00
37158;DHT22;23050;51.776;22.638;2023-02-22T10:26:19;4.50;1.00
37158;DHT22;23050;51.776;22.638;2023-02-22T10:28:53;4.50;1.00
37158;DHT22;23050;51.776;22.638;2023-02-22T10:31:25;4.60;1.00
37158;DHT22;23050;51.776;22.638;2023-02-22T10:33:57;4.50;1.00
37158;DHT22;23050;51.776;22.638;2023-02-22T10:36:25;4.40;1.00
37158;DHT22;23050;51.776;22.638;2023-02-22T10:39:29;4.30;1.00
37158;DHT22;23050;51.776;22.638;2023-02-22T10:41:58;4.20;1.00
37158;DHT22;23050;51.776;22.638;2023-02-22T10:44:34;4.20;1.00
37158;DHT22;23050;51.776;22.638;2023-02-22T10:47:02;4.20;1.00
37158;DHT22;23050;51.776;22.638;2023-02-22T10:49:34;4.20;1.00
37158;DHT22;23050;51.776;22.638;2023-02-22T10:52:02;4.20;1.00
37158;DHT22;23050;51.776;22.638;2023-02-22T10:54:33;4.10;1.00
37158;DHT22;23050;51.776;22.638;2023-02-22T10:57:00;3.90;1.00
37158;DHT22;23050;51.776;22.638;2023-02-22T11:02:00;3.90;1.00
37158;DHT22;23050;51.776;22.638;2023-02-22T11:04:44;3.90;1.00
37158;DHT22;23050;51.776;22.638;2023-02-22T11:07:31;3.80;1.00
37158;DHT22;23050;51.776;22.638;2023-02-22T11:09:59;3.80;1.00
37158;DHT22;23050;51.776;22.638;2023-02-22T11:12:38;3.90;1.00
37158;DHT22;23050;51.776;22.638;2023-02-22T11:17:43;3.70;1.00
37158;DHT22;23050;51.776;22.638;2023-02-22T11:20:25;3.60;1.00
37158;DHT22;23050;51.776;22.638;2023-02-22T11:22:54;3.60;1.00
37158;DHT22;23050;51.776;22.638;2023-02-22T11:25:23;3.60;1.00
37158;DHT22;23050;51.776;22.638;2023-02-22T11:27:49;3.50;1.00
37158;DHT22;23050;51.776;22.638;2023-02-22T11:32:49;3.60;1.00
37158;DHT22;23050;51.776;22.638;2023-02-22T11:35:36;3.70;9.30
37158;DHT22;23050;51.776;22.638;2023-02-22T11:38:17;3.80;30.90
37158;DHT22;23050;51.776;22.638;2023-02-22T11:40:46;3.90;44.60
37158;DHT22;23050;51.776;22.638;2023-02-22T11:43:17;3.90;44.70
37158;DHT22;23050;51.776;22.638;2023-02-22T11:46:02;3.80;50.20
37158;DHT22;23050;51.776;22.638;2023-02-22T11:48:31;3.80;56.00
37158;DHT22;23050;51.776;22.638;2023-02-22T11:52:09;3.70;60.70
37158;DHT22;23050;51.776;22.638;2023-02-22T11:54:31;3.80;61.90
37158;DHT22;23050;51.776;22.638;2023-02-22T11:59:42;3.70;63.40
37158;DHT22;23050;51.776;22.638;2023-02-22T12:10:19;3.60;69.80
37158;DHT22;23050;51.776;22.638;2023-02-22T12:13:00;3.50;56.80
37158;DHT22;23050;51.776;22.638;2023-02-22T12:15:34;3.40;46.80
37158;DHT22;23050;51.776;22.638;2023-02-22T12:20:38;3.30;48.10
37158;DHT22;23050;51.776;22.638;2023-02-22T12:26:24;3.10;87.30
37158;DHT22;23050;51.776;22.638;2023-02-22T12:28:54;3.00;94.10
37158;DHT22;23050;51.776;22.638;2023-02-22T12:31:36;2.90;96.90
37158;DHT22;23050;51.776;22.638;2023-02-22T12:36:46;2.80;99.90
37158;DHT22;23050;51.776;22.638;2023-02-22T12:42:29;2.60;99.90
37158;DHT22;23050;51.776;22.638;2023-02-22T12:45:10;2.60;99.90
37158;DHT22;23050;51.776;22.638;2023-02-22T12:47:50;2.60;99.90
37158;DHT22;23050;51.776;22.638;2023-02-22T12:50:22;2.60;99.90
37158;DHT22;23050;51.776;22.638;2023-02-22T12:53:13;2.60;99.90
37158;DHT22;23050;51.776;22.638;2023-02-22T12:55:51;2.50;99.90
37158;DHT22;23050;51.776;22.638;2023-02-22T13:01:42;2.50;99.90
37158;DHT22;23050;51.776;22.638;2023-02-22T13:04:09;2.50;99.90
37158;DHT22;23050;51.776;22.638;2023-02-22T13:06:45;2.50;99.90
37158;DHT22;23050;51.776;22.638;2023-02-22T13:09:36;2.50;99.70
37158;DHT22;23050;51.776;22.638;2023-02-22T13:14:42;2.30;97.60
37158;DHT22;23050;51.776;22.638;2023-02-22T13:17:29;2.30;96.60
37158;DHT22;23050;51.776;22.638;2023-02-22T13:20:11;2.20;96.00
37158;DHT22;23050;51.776;22.638;2023-02-22T13:22:55;2.20;96.50
37158;DHT22;23050;51.776;22.638;2023-02-22T13:25:28;2.20;98.10
37158;DHT22;23050;51.776;22.638;2023-02-22T13:28:05;2.20;99.20
37158;DHT22;23050;51.776;22.638;2023-02-22T13:31:23;2.20;97.80
37158;DHT22;23050;51.776;22.638;2023-02-22T13:34:26;2.10;95.50
37158;DHT22;23050;51.776;22.638;2023-02-22T13:54:35;1.80;91.00
37158;DHT22;23050;51.776;22.638;2023-02-22T13:57:03;1.80;92.40
37158;DHT22;23050;51.776;22.638;2023-02-22T13:59:41;1.80;93.20
37158;DHT22;23050;51.776;22.638;2023-02-22T14:02:55;1.80;93.40
37158;DHT22;23050;51.776;22.638;2023-02-22T14:13:11;1.80;94.30
37158;DHT22;23050;51.776;22.638;2023-02-22T14:18:25;1.70;94.80
37158;DHT22;23050;51.776;22.638;2023-02-22T14:21:20;1.70;94.20
37158;DHT22;23050;51.776;22.638;2023-02-22T14:23:53;1.70;93.60
37158;DHT22;23050;51.776;22.638;2023-02-22T14:26:31;1.70;93.40
37158;DHT22;23050;51.776;22.638;2023-02-22T14:31:32;1.70;92.80
37158;DHT22;23050;51.776;22.638;2023-02-22T14:34:13;1.70;92.10
37158;DHT22;23050;51.776;22.638;2023-02-22T14:36:42;1.70;92.70
37158;DHT22;23050;51.776;22.638;2023-02-22T14:39:23;1.70;93.10
37158;DHT22;23050;51.776;22.638;2023-02-22T14:41:57;1.70;91.50
37158;DHT22;23050;51.776;22.638;2023-02-22T14:44:42;1.60;91.40
37158;DHT22;23050;51.776;22.638;2023-02-22T14:47:26;1.70;90.80
37158;DHT22;23050;51.776;22.638;2023-02-22T14:50:00;1.70;91.70
37158;DHT22;23050;51.776;22.638;2023-02-22T14:52:29;1.70;92.10
37158;DHT22;23050;51.776;22.638;2023-02-22T14:55:05;1.70;92.20
37158;DHT22;23050;51.776;22.638;2023-02-22T14:57:43;1.80;91.70
37158;DHT22;23050;51.776;22.638;2023-02-22T15:02:48;1.70;90.90
37158;DHT22;23050;51.776;22.638;2023-02-22T15:05:16;1.70;90.10
37158;DHT22;23050;51.776;22.638;2023-02-22T15:07:57;1.60;89.50
37158;DHT22;23050;51.776;22.638;2023-02-22T15:10:26;1.50;91.30
37158;DHT22;23050;51.776;22.638;2023-02-22T15:12:54;1.50;92.00
37158;DHT22;23050;51.776;22.638;2023-02-22T15:15:34;1.50;93.20
37158;DHT22;23050;51.776;22.638;2023-02-22T15:18:00;1.40;94.70
37158;DHT22;23050;51.776;22.638;2023-02-22T15:20:27;1.40;96.30
37158;DHT22;23050;51.776;22.638;2023-02-22T15:23:02;1.40;97.40
37158;DHT22;23050;51.776;22.638;2023-02-22T15:25:29;1.40;97.40
37158;DHT22;23050;51.776;22.638;2023-02-22T15:28:01;1.40;96.90
37158;DHT22;23050;51.776;22.638;2023-02-22T15:30:29;1.40;97.30
37158;DHT22;23050;51.776;22.638;2023-02-22T15:33:02;1.30;96.80
37158;DHT22;23050;51.776;22.638;2023-02-22T15:35:33;1.20;97.70
37158;DHT22;23050;51.776;22.638;2023-02-22T15:38:05;1.30;98.60
37158;DHT22;23050;51.776;22.638;2023-02-22T15:40:31;1.20;98.90
37158;DHT22;23050;51.776;22.638;2023-02-22T15:43:00;1.20;99.90
37158;DHT22;23050;51.776;22.638;2023-02-22T15:45:27;1.20;99.60
37158;DHT22;23050;51.776;22.638;2023-02-22T15:47:53;1.20;99.20
37158;DHT22;23050;51.776;22.638;2023-02-22T15:52:58;1.20;99.50
37158;DHT22;23050;51.776;22.638;2023-02-22T15:55:33;1.20;99.80
37158;DHT22;23050;51.776;22.638;2023-02-22T15:58:20;1.20;99.30
37158;DHT22;23050;51.776;22.638;2023-02-22T16:00:59;1.20;99.00
37158;DHT22;23050;51.776;22.638;2023-02-22T16:03:29;1.20;96.80
37158;DHT22;23050;51.776;22.638;2023-02-22T16:06:00;1.20;94.80
37158;DHT22;23050;51.776;22.638;2023-02-22T16:08:35;1.10;95.20
37158;DHT22;23050;51.776;22.638;2023-02-22T16:11:08;1.20;95.90
37158;DHT22;23050;51.776;22.638;2023-02-22T16:13:38;1.10;95.50
37158;DHT22;23050;51.776;22.638;2023-02-22T16:16:21;1.10;96.70
37158;DHT22;23050;51.776;22.638;2023-02-22T16:18:47;1.10;98.70
37158;DHT22;23050;51.776;22.638;2023-02-22T16:21:15;1.00;99.90
37158;DHT22;23050;51.776;22.638;2023-02-22T16:23:54;0.90;99.90
37158;DHT22;23050;51.776;22.638;2023-02-22T16:26:21;0.80;99.90
37158;DHT22;23050;51.776;22.638;2023-02-22T16:28:49;0.70;99.90
37158;DHT22;23050;51.776;22.638;2023-02-22T16:31:23;0.60;99.90
37158;DHT22;23050;51.776;22.638;2023-02-22T16:33:50;0.60;99.90
37158;DHT22;23050;51.776;22.638;2023-02-22T16:36:16;0.60;99.90
37158;DHT22;23050;51.776;22.638;2023-02-22T16:38:41;0.60;99.90
37158;DHT22;23050;51.776;22.638;2023-02-22T16:41:08;0.50;99.90
37158;DHT22;23050;51.776;22.638;2023-02-22T16:43:34;0.50;99.90
37158;DHT22;23050;51.776;22.638;2023-02-22T16:46:01;0.50;99.90
37158;DHT22;23050;51.776;22.638;2023-02-22T16:48:29;0.50;99.90
37158;DHT22;23050;51.776;22.638;2023-02-22T16:51:00;0.50;99.90
37158;DHT22;23050;51.776;22.638;2023-02-22T16:53:28;0.40;99.90
37158;DHT22;23050;51.776;22.638;2023-02-22T16:56:01;0.40;99.90
37158;DHT22;23050;51.776;22.638;2023-02-22T16:58:28;0.40;99.90
37158;DHT22;23050;51.776;22.638;2023-02-22T17:00:59;0.40;99.90
37158;DHT22;23050;51.776;22.638;2023-02-22T17:03:25;0.40;99.90
37158;DHT22;23050;51.776;22.638;2023-02-22T17:05:51;0.40;99.90
37158;DHT22;23050;51.776;22.638;2023-02-22T17:08:17;0.30;99.90
37158;DHT22;23050;51.776;22.638;2023-02-22T17:10:43;0.30;99.90
37158;DHT22;23050;51.776;22.638;2023-02-22T17:13:11;0.30;99.90
37158;DHT22;23050;51.776;22.638;2023-02-22T17:15:36;0.30;99.90
37158;DHT22;23050;51.776;22.638;2023-02-22T17:18:13;0.30;99.90
37158;DHT22;23050;51.776;22.638;2023-02-22T17:20:43;0.30;99.90
37158;DHT22;23050;51.776;22.638;2023-02-22T17:23:10;0.30;99.90
37158;DHT22;23050;51.776;22.638;2023-02-22T17:28:09;0.30;99.90
37158;DHT22;23050;51.776;22.638;2023-02-22T17:30:35;0.30;99.90
37158;DHT22;23050;51.776;22.638;2023-02-22T17:33:03;0.30;99.90
37158;DHT22;23050;51.776;22.638;2023-02-22T17:35:30;0.20;99.90
37158;DHT22;23050;51.776;22.638;2023-02-22T17:37:58;0.20;99.90
37158;DHT22;23050;51.776;22.638;2023-02-22T17:40:25;0.30;99.90
37158;DHT22;23050;51.776;22.638;2023-02-22T17:42:51;0.20;99.90
37158;DHT22;23050;51.776;22.638;2023-02-22T17:45:21;0.30;99.90
37158;DHT22;23050;51.776;22.638;2023-02-22T17:47:48;0.20;99.90